createdAt,value
2018-12-31T00:01:11.202Z,25.30
2018-12-31T00:03:39.783Z,22.90
2018-12-31T00:06:08.330Z,22.57
2018-12-31T00:08:36.900Z,19.57
2018-12-31T00:11:05.440Z,22.40
2018-12-31T00:13:34.006Z,27.10
2018-12-31T00:16:02.554Z,21.93
2018-12-31T00:18:31.404Z,19.40
2018-12-31T00:20:59.870Z,23.43
2018-12-31T00:23:28.437Z,24.07
2018-12-31T00:25:56.982Z,22.00
2018-12-31T00:28:25.551Z,25.37
2018-12-31T00:30:54.091Z,19.60
2018-12-31T00:33:22.659Z,20.40
2018-12-31T00:35:51.130Z,20.80
2018-12-31T00:38:19.698Z,25.17
2018-12-31T00:40:48.242Z,23.03
2018-12-31T00:43:16.743Z,24.60
2018-12-31T00:45:45.283Z,20.30
2018-12-31T00:48:13.853Z,20.73
2018-12-31T00:50:42.394Z,18.83
2018-12-31T00:53:10.962Z,25.23
2018-12-31T00:55:39.503Z,23.93
2018-12-31T00:58:08.048Z,23.57
2018-12-31T01:00:36.618Z,25.30
2018-12-31T01:03:05.225Z,32.03
2018-12-31T01:05:33.790Z,27.57
2018-12-31T01:08:02.330Z,25.27
2018-12-31T01:10:30.908Z,27.37
2018-12-31T01:12:59.447Z,31.67
2018-12-31T01:15:28.084Z,25.50
2018-12-31T01:17:56.625Z,29.63
2018-12-31T01:20:25.365Z,23.53
2018-12-31T01:22:53.907Z,31.50
2018-12-31T01:25:22.402Z,23.77
2018-12-31T01:27:50.879Z,21.23
2018-12-31T01:30:19.830Z,23.60
2018-12-31T01:32:48.298Z,27.20
2018-12-31T01:35:16.875Z,25.73
2018-12-31T01:37:45.442Z,24.40
2018-12-31T01:40:13.995Z,24.63
2018-12-31T01:42:42.534Z,22.30
2018-12-31T01:45:11.123Z,25.40
2018-12-31T01:47:39.666Z,22.70
2018-12-31T01:50:08.244Z,25.03
2018-12-31T01:52:36.781Z,28.20
2018-12-31T01:55:05.787Z,25.33
2018-12-31T01:57:34.326Z,21.23
2018-12-31T02:00:02.906Z,24.90
2018-12-31T02:02:31.442Z,21.87
2018-12-31T02:05:00.014Z,22.60
2018-12-31T02:07:28.561Z,18.83
2018-12-31T02:09:57.135Z,25.53
2018-12-31T02:12:25.679Z,23.10
2018-12-31T02:14:54.245Z,27.50
2018-12-31T02:17:22.793Z,23.87
2018-12-31T02:19:51.344Z,24.13
2018-12-31T02:22:19.889Z,22.70
2018-12-31T02:24:48.494Z,26.50
2018-12-31T02:27:17.079Z,20.87
2018-12-31T02:29:45.618Z,20.40
2018-12-31T02:32:14.573Z,22.33
2018-12-31T02:34:43.047Z,23.87
2018-12-31T02:37:11.678Z,21.83
2018-12-31T02:39:40.218Z,22.93
2018-12-31T02:42:08.706Z,21.67
2018-12-31T02:44:37.173Z,23.97
2018-12-31T02:47:05.734Z,23.00
2018-12-31T02:49:34.274Z,26.13
2018-12-31T02:52:02.774Z,24.03
2018-12-31T02:54:31.377Z,21.90
2018-12-31T02:56:59.877Z,22.60
2018-12-31T02:59:28.333Z,24.53
2018-12-31T03:01:56.830Z,26.47
2018-12-31T03:04:25.366Z,24.70
2018-12-31T03:06:53.930Z,22.77
2018-12-31T03:09:22.400Z,22.63
2018-12-31T03:11:50.967Z,20.43
2018-12-31T03:14:19.505Z,20.80
2018-12-31T03:16:48.071Z,24.47
2018-12-31T03:19:16.613Z,21.60
2018-12-31T03:21:45.442Z,25.83
2018-12-31T03:24:13.982Z,24.17
2018-12-31T03:26:42.816Z,22.13
2018-12-31T03:29:11.357Z,21.50
2018-12-31T03:31:39.915Z,28.60
2018-12-31T03:34:08.453Z,24.70
2018-12-31T03:36:36.938Z,21.37
2018-12-31T03:39:07.286Z,22.80
2018-12-31T03:41:36.122Z,20.87
2018-12-31T03:44:04.734Z,20.53
2018-12-31T03:46:33.220Z,21.43
2018-12-31T03:49:02.086Z,23.03
2018-12-31T03:51:30.724Z,22.30
2018-12-31T03:53:59.182Z,29.17
2018-12-31T03:56:27.670Z,21.63
2018-12-31T03:58:56.135Z,21.33
2018-12-31T04:01:24.720Z,20.90
2018-12-31T04:03:53.575Z,24.63
2018-12-31T04:06:22.147Z,20.50
2018-12-31T04:08:50.693Z,23.90
2018-12-31T04:11:19.230Z,21.60
2018-12-31T04:13:47.793Z,20.43
2018-12-31T04:16:16.250Z,20.57
2018-12-31T04:18:44.749Z,23.10
2018-12-31T04:21:13.277Z,20.23
2018-12-31T04:23:41.757Z,23.53
2018-12-31T04:26:10.223Z,23.40
2018-12-31T04:28:38.786Z,19.43
2018-12-31T04:31:07.251Z,24.43
2018-12-31T04:33:35.819Z,19.60
2018-12-31T04:36:04.350Z,21.57
2018-12-31T04:38:32.918Z,20.90
2018-12-31T04:41:01.455Z,21.00
2018-12-31T04:43:30.038Z,18.57
2018-12-31T04:45:58.558Z,19.93
2018-12-31T04:48:27.122Z,19.23
2018-12-31T04:50:55.989Z,17.13
2018-12-31T04:53:24.556Z,18.67
2018-12-31T04:55:53.096Z,20.40
2018-12-31T04:58:23.115Z,18.10
2018-12-31T05:00:51.850Z,20.77
2018-12-31T05:03:20.419Z,16.63
2018-12-31T05:05:49.216Z,22.13
2018-12-31T05:08:18.103Z,20.57
2018-12-31T05:10:46.638Z,19.23
2018-12-31T05:13:15.139Z,17.40
2018-12-31T05:15:43.676Z,16.27
2018-12-31T05:18:12.238Z,19.80
2018-12-31T05:20:40.769Z,19.13
2018-12-31T05:23:09.258Z,18.07
2018-12-31T05:25:37.728Z,19.10
2018-12-31T05:28:06.290Z,20.63
2018-12-31T05:30:34.829Z,19.90
2018-12-31T05:33:03.330Z,16.53
2018-12-31T05:35:31.861Z,18.97
2018-12-31T05:38:00.616Z,18.87
2018-12-31T05:40:29.169Z,20.80
2018-12-31T05:42:57.745Z,19.90
2018-12-31T05:45:26.290Z,16.20
2018-12-31T05:47:54.786Z,18.67
2018-12-31T05:50:23.319Z,16.40
2018-12-31T05:52:51.885Z,17.07
2018-12-31T05:55:20.346Z,19.17
2018-12-31T05:57:48.814Z,19.87
2018-12-31T06:00:17.450Z,21.63
2018-12-31T06:02:45.996Z,17.83
2018-12-31T06:05:14.626Z,17.53
2018-12-31T06:07:43.161Z,19.83
2018-12-31T06:10:11.732Z,22.60
2018-12-31T06:12:40.266Z,20.20
2018-12-31T06:15:08.754Z,19.33
2018-12-31T06:17:37.282Z,17.40
2018-12-31T06:20:05.914Z,17.10
2018-12-31T06:22:34.515Z,18.53
2018-12-31T06:25:03.025Z,20.53
2018-12-31T06:27:31.554Z,21.73
2018-12-31T06:30:02.094Z,18.50
2018-12-31T06:32:30.306Z,18.03
2018-12-31T06:34:58.866Z,20.13
2018-12-31T06:37:27.335Z,17.80
2018-12-31T06:39:55.902Z,16.47
2018-12-31T06:42:24.471Z,17.73
2018-12-31T06:44:53.033Z,16.90
2018-12-31T06:47:21.494Z,21.30
2018-12-31T06:49:49.992Z,20.57
2018-12-31T06:52:18.531Z,20.90
2018-12-31T06:54:47.090Z,18.37
2018-12-31T06:57:15.568Z,18.50
2018-12-31T06:59:44.195Z,16.40
2018-12-31T07:02:12.726Z,18.60
2018-12-31T07:04:41.290Z,17.73
2018-12-31T07:07:09.834Z,16.43
2018-12-31T07:09:38.417Z,19.50
2018-12-31T07:12:06.938Z,19.33
2018-12-31T07:14:35.510Z,20.80
2018-12-31T07:17:04.125Z,26.83
2018-12-31T07:19:32.687Z,21.10
2018-12-31T07:22:01.228Z,19.83
2018-12-31T07:24:29.794Z,24.50
2018-12-31T07:26:58.335Z,23.00
2018-12-31T07:29:26.906Z,21.07
2018-12-31T07:31:55.446Z,19.10
2018-12-31T07:34:24.005Z,18.90
2018-12-31T07:36:52.465Z,19.37
2018-12-31T07:39:20.929Z,25.13
2018-12-31T07:41:49.423Z,33.90
2018-12-31T07:44:17.958Z,25.50
2018-12-31T07:46:46.517Z,22.20
2018-12-31T07:49:15.057Z,27.67
2018-12-31T07:51:43.627Z,27.53
2018-12-31T07:54:12.171Z,25.83
2018-12-31T07:56:40.734Z,25.83
2018-12-31T07:59:09.274Z,24.30
2018-12-31T08:01:37.846Z,31.70
2018-12-31T08:04:06.383Z,26.07
2018-12-31T08:06:34.942Z,29.30
2018-12-31T08:09:04.854Z,27.03
2018-12-31T08:11:33.420Z,23.60
2018-12-31T08:14:01.959Z,26.70
2018-12-31T08:16:30.518Z,24.47
2018-12-31T08:18:58.982Z,25.47
2018-12-31T08:21:27.558Z,20.20
2018-12-31T08:23:56.098Z,20.33
2018-12-31T08:26:24.663Z,20.23
2018-12-31T08:28:53.265Z,20.33
2018-12-31T08:31:21.758Z,20.60
2018-12-31T08:33:50.297Z,20.93
2018-12-31T08:36:18.863Z,24.83
2018-12-31T08:38:47.403Z,18.47
2018-12-31T08:41:15.979Z,24.40
2018-12-31T08:43:44.515Z,20.97
2018-12-31T08:46:13.078Z,22.17
2018-12-31T08:48:41.606Z,20.97
2018-12-31T08:51:10.098Z,19.57
2018-12-31T08:53:38.634Z,21.53
2018-12-31T08:56:07.146Z,20.80
2018-12-31T08:58:35.750Z,26.53
2018-12-31T09:01:04.241Z,21.33
2018-12-31T09:03:32.778Z,18.57
2018-12-31T09:06:01.338Z,19.37
2018-12-31T09:08:29.874Z,19.67
2018-12-31T09:10:58.371Z,17.80
2018-12-31T09:13:26.925Z,16.27
2018-12-31T09:15:55.414Z,21.23
2018-12-31T09:18:23.955Z,18.53
2018-12-31T09:20:52.515Z,19.63
2018-12-31T09:23:20.980Z,18.30
2018-12-31T09:25:49.521Z,20.67
2018-12-31T09:28:18.083Z,18.53
2018-12-31T09:30:46.648Z,16.90
2018-12-31T09:33:15.205Z,16.20
2018-12-31T09:35:43.749Z,17.47
2018-12-31T09:38:12.237Z,18.90
2018-12-31T09:40:40.778Z,17.07
2018-12-31T09:43:09.342Z,23.80
2018-12-31T09:45:37.874Z,23.93
2018-12-31T09:48:06.438Z,39.27
2018-12-31T09:50:34.982Z,15.33
2018-12-31T09:53:03.478Z,18.93
2018-12-31T09:55:32.026Z,14.87
2018-12-31T09:58:00.592Z,17.20
2018-12-31T10:00:29.410Z,16.47
2018-12-31T10:02:57.954Z,16.87
2018-12-31T10:05:26.494Z,16.67
2018-12-31T10:07:55.058Z,17.13
2018-12-31T10:10:23.599Z,15.70
2018-12-31T10:12:52.161Z,18.20
2018-12-31T10:15:20.622Z,19.47
2018-12-31T10:17:49.115Z,16.50
2018-12-31T10:20:17.653Z,16.80
2018-12-31T10:22:46.221Z,20.53
2018-12-31T10:25:14.757Z,17.30
2018-12-31T10:27:43.318Z,18.40
2018-12-31T10:30:11.780Z,16.73
2018-12-31T10:32:40.270Z,23.20
2018-12-31T10:35:08.803Z,19.63
2018-12-31T10:37:37.294Z,19.37
2018-12-31T10:40:08.674Z,19.83
2018-12-31T10:42:37.250Z,21.30
2018-12-31T10:45:05.926Z,17.60
2018-12-31T10:47:34.490Z,21.17
2018-12-31T10:50:03.358Z,31.50
2018-12-31T10:52:31.917Z,24.67
2018-12-31T10:55:00.454Z,19.97
2018-12-31T10:57:28.942Z,19.60
2018-12-31T10:59:57.485Z,24.67
2018-12-31T11:02:26.023Z,48.50
2018-12-31T11:04:54.956Z,34.07
2018-12-31T11:07:23.590Z,22.60
2018-12-31T11:09:52.147Z,22.77
2018-12-31T11:12:20.677Z,19.50
2018-12-31T11:14:49.234Z,40.10
2018-12-31T11:17:17.719Z,56.98
2018-12-31T11:19:46.530Z,28.77
2018-12-31T11:22:15.065Z,18.40
2018-12-31T11:24:43.631Z,20.13
2018-12-31T11:27:12.166Z,16.93
2018-12-31T11:29:40.730Z,20.20
2018-12-31T11:32:09.269Z,21.43
2018-12-31T11:34:37.769Z,20.87
2018-12-31T11:37:06.490Z,23.60
2018-12-31T11:39:35.056Z,21.90
2018-12-31T11:42:03.592Z,19.77
2018-12-31T11:44:32.157Z,19.37
2018-12-31T11:47:00.618Z,19.77
2018-12-31T11:49:29.155Z,20.83
2018-12-31T11:51:57.706Z,17.03
2018-12-31T11:54:26.266Z,18.23
2018-12-31T11:56:54.802Z,17.83
2018-12-31T11:59:23.370Z,17.50
2018-12-31T12:01:51.916Z,22.17
2018-12-31T12:04:20.481Z,22.40
2018-12-31T12:06:49.018Z,22.17
2018-12-31T12:09:17.942Z,19.30
2018-12-31T12:11:46.482Z,17.70
2018-12-31T12:14:15.038Z,17.90
2018-12-31T12:16:43.581Z,16.80
2018-12-31T12:19:12.145Z,18.80
2018-12-31T12:21:40.685Z,16.37
2018-12-31T12:24:09.250Z,15.63
2018-12-31T12:26:37.792Z,16.73
2018-12-31T12:29:06.356Z,15.90
2018-12-31T12:31:35.095Z,14.77
2018-12-31T12:34:03.658Z,20.60
2018-12-31T12:36:32.190Z,20.68
2018-12-31T12:39:00.767Z,18.10
2018-12-31T12:41:29.310Z,18.10
2018-12-31T12:43:58.141Z,18.10
2018-12-31T12:46:27.058Z,20.70
2018-12-31T12:48:55.521Z,17.20
2018-12-31T12:51:24.081Z,21.43
2018-12-31T12:53:52.617Z,33.33
2018-12-31T12:56:21.482Z,48.53
2018-12-31T12:58:50.373Z,36.03
2018-12-31T13:01:18.929Z,62.63
2018-12-31T13:03:47.474Z,25.63
2018-12-31T13:06:16.320Z,23.77
2018-12-31T13:08:45.161Z,20.57
2018-12-31T13:11:13.730Z,21.73
2018-12-31T13:13:42.267Z,64.23
2018-12-31T13:16:10.838Z,95.63
2018-12-31T13:18:39.377Z,39.50
2018-12-31T13:21:08.350Z,16.70
2018-12-31T13:23:36.886Z,21.47
2018-12-31T13:26:06.318Z,22.07
2018-12-31T13:28:34.848Z,18.43
2018-12-31T13:31:03.418Z,18.77
2018-12-31T13:33:32.366Z,18.63
2018-12-31T13:36:00.934Z,17.80
2018-12-31T13:38:29.477Z,14.80
2018-12-31T13:40:58.049Z,13.50
2018-12-31T13:43:26.578Z,15.37
2018-12-31T13:45:55.146Z,18.97
2018-12-31T13:48:23.685Z,19.40
2018-12-31T13:50:52.249Z,17.63
2018-12-31T13:53:20.802Z,20.57
2018-12-31T13:55:49.365Z,18.07
2018-12-31T13:58:18.255Z,70.30
2018-12-31T14:00:46.828Z,39.20
2018-12-31T14:03:17.574Z,25.60
2018-12-31T14:05:45.570Z,19.10
2018-12-31T14:08:14.117Z,13.30
2018-12-31T14:10:42.678Z,17.13
2018-12-31T14:13:11.217Z,17.00
2018-12-31T14:15:39.781Z,16.80
2018-12-31T14:18:08.323Z,20.30
2018-12-31T14:20:36.886Z,19.63
2018-12-31T14:23:05.429Z,15.03
2018-12-31T14:25:34.005Z,17.33
2018-12-31T14:28:02.551Z,17.37
2018-12-31T14:30:31.201Z,17.67
2018-12-31T14:32:59.725Z,14.33
2018-12-31T14:35:28.270Z,25.20
2018-12-31T14:37:56.838Z,14.07
2018-12-31T14:40:25.373Z,17.27
2018-12-31T14:42:53.982Z,16.03
2018-12-31T14:45:22.476Z,19.33
2018-12-31T14:47:51.306Z,27.50
2018-12-31T14:50:19.833Z,25.37
2018-12-31T14:52:48.334Z,26.30
2018-12-31T14:55:16.870Z,17.27
2018-12-31T14:57:45.429Z,16.23
2018-12-31T15:00:13.969Z,30.10
2018-12-31T15:02:42.838Z,26.83
2018-12-31T15:05:11.445Z,23.53
2018-12-31T15:07:40.078Z,27.43
2018-12-31T15:10:08.751Z,26.33
2018-12-31T15:12:37.250Z,21.80
2018-12-31T15:15:07.629Z,22.40
2018-12-31T15:17:36.193Z,20.80
2018-12-31T15:20:07.141Z,24.70
2018-12-31T15:22:35.702Z,19.90
2018-12-31T15:25:04.720Z,19.13
2018-12-31T15:27:33.490Z,19.80
2018-12-31T15:30:02.026Z,51.70
2018-12-31T15:32:30.590Z,28.63
2018-12-31T15:34:59.130Z,22.53
2018-12-31T15:37:27.867Z,20.33
2018-12-31T15:39:56.573Z,24.50
2018-12-31T15:42:25.133Z,23.23
2018-12-31T15:44:54.147Z,20.73
2018-12-31T15:47:22.714Z,20.27
2018-12-31T15:49:51.309Z,20.73
2018-12-31T15:52:20.542Z,33.80
2018-12-31T15:54:49.084Z,24.03
2018-12-31T15:57:17.647Z,18.63
2018-12-31T15:59:46.250Z,19.20
2018-12-31T16:02:14.860Z,20.27
2018-12-31T16:04:43.359Z,16.57
2018-12-31T16:07:11.927Z,14.23
2018-12-31T16:09:40.462Z,15.20
2018-12-31T16:12:09.003Z,16.30
2018-12-31T16:14:37.565Z,18.57
2018-12-31T16:17:06.102Z,28.37
2018-12-31T16:19:34.670Z,40.80
2018-12-31T16:22:03.275Z,29.60
2018-12-31T16:24:31.881Z,25.03
2018-12-31T16:27:00.378Z,21.73
2018-12-31T16:29:29.018Z,39.43
2018-12-31T16:31:57.778Z,51.10
2018-12-31T16:34:26.346Z,21.30
2018-12-31T16:36:54.874Z,22.93
2018-12-31T16:39:23.458Z,20.73
2018-12-31T16:41:51.993Z,14.87
2018-12-31T16:44:21.032Z,18.10
2018-12-31T16:46:49.569Z,18.90
2018-12-31T16:49:18.098Z,17.57
2018-12-31T16:51:46.690Z,17.37
2018-12-31T16:54:16.078Z,16.13
2018-12-31T16:57:05.240Z,17.80
2018-12-31T16:59:33.894Z,16.20
2018-12-31T17:02:02.361Z,19.80
2018-12-31T17:04:30.899Z,17.00
2018-12-31T17:06:59.782Z,17.07
2018-12-31T17:09:28.369Z,19.33
2018-12-31T17:11:56.893Z,22.03
2018-12-31T17:14:25.484Z,21.50
2018-12-31T17:16:54.061Z,17.93
2018-12-31T17:19:22.626Z,20.20
2018-12-31T17:21:51.198Z,26.67
2018-12-31T17:24:19.734Z,23.50
2018-12-31T17:26:48.274Z,17.43
2018-12-31T17:29:16.858Z,20.80
2018-12-31T17:31:45.442Z,25.33
2018-12-31T17:34:13.977Z,25.43
2018-12-31T17:36:42.558Z,25.27
2018-12-31T17:39:11.157Z,29.47
2018-12-31T17:41:39.682Z,24.50
2018-12-31T17:44:08.256Z,30.23
2018-12-31T17:46:37.002Z,26.20
2018-12-31T17:49:05.602Z,29.10
2018-12-31T17:51:34.129Z,25.40
2018-12-31T17:54:02.706Z,29.17
2018-12-31T17:56:31.242Z,33.13
2018-12-31T17:59:00.138Z,32.60
2018-12-31T18:01:28.960Z,26.70
2018-12-31T18:03:57.541Z,49.27
2018-12-31T18:06:26.132Z,42.67
2018-12-31T18:08:54.716Z,42.70
2018-12-31T18:11:23.294Z,45.30
2018-12-31T18:13:51.894Z,47.47
2018-12-31T18:16:20.434Z,42.57
2018-12-31T18:18:48.970Z,41.30
2018-12-31T18:21:17.557Z,36.47
2018-12-31T18:23:46.098Z,38.30
2018-12-31T18:26:14.682Z,38.27
2018-12-31T18:28:43.223Z,39.50
2018-12-31T18:31:11.815Z,39.43
2018-12-31T18:33:40.347Z,40.20
2018-12-31T18:36:09.909Z,42.30
2018-12-31T18:38:38.449Z,42.53
2018-12-31T18:41:07.186Z,42.40
2018-12-31T18:43:35.718Z,56.63
2018-12-31T18:46:04.333Z,52.57
2018-12-31T18:48:32.994Z,46.47
2018-12-31T18:51:01.752Z,42.27
2018-12-31T18:53:33.031Z,38.60
2018-12-31T18:56:01.658Z,34.10
2018-12-31T18:58:31.827Z,34.20
2018-12-31T19:01:00.398Z,37.53
2018-12-31T19:03:29.438Z,32.53
2018-12-31T19:05:58.036Z,36.17
2018-12-31T19:08:26.578Z,29.23
2018-12-31T19:10:55.123Z,42.63
2018-12-31T19:13:23.714Z,55.57
2018-12-31T19:15:52.254Z,50.43
2018-12-31T19:18:20.805Z,51.80
2018-12-31T19:20:49.394Z,48.33
2018-12-31T19:23:17.991Z,37.23
2018-12-31T19:25:46.537Z,39.60
2018-12-31T19:28:15.070Z,35.10
2018-12-31T19:30:43.714Z,30.03
2018-12-31T19:33:12.255Z,26.10
2018-12-31T19:35:40.921Z,28.93
2018-12-31T19:38:09.520Z,28.40
2018-12-31T19:40:38.019Z,22.80
2018-12-31T19:43:06.903Z,32.23
2018-12-31T19:45:35.437Z,30.27
2018-12-31T19:48:04.020Z,27.07
2018-12-31T19:50:32.597Z,28.37
2018-12-31T19:53:01.187Z,27.93
2018-12-31T19:55:29.730Z,25.07
2018-12-31T19:57:58.321Z,28.17
2018-12-31T20:03:22.733Z,31.13
2018-12-31T20:05:51.348Z,27.27
2018-12-31T20:08:19.923Z,32.70
2018-12-31T20:10:48.458Z,30.57
2018-12-31T20:13:17.040Z,35.10
2018-12-31T20:15:48.701Z,35.60
2018-12-31T20:18:16.141Z,29.67
2018-12-31T20:20:44.770Z,33.90
2018-12-31T20:23:13.346Z,29.30
2018-12-31T20:25:41.881Z,29.33
2018-12-31T20:28:10.461Z,36.00
2018-12-31T20:30:39.721Z,31.53
2018-12-31T20:33:08.274Z,78.13
2018-12-31T20:35:36.917Z,92.10
2018-12-31T20:38:05.458Z,47.27
2018-12-31T20:40:34.051Z,43.07
2018-12-31T20:43:02.585Z,35.33
2018-12-31T20:45:31.470Z,29.07
2018-12-31T20:48:01.882Z,32.23
2018-12-31T20:50:30.430Z,34.03
2018-12-31T20:52:58.971Z,31.33
2018-12-31T20:55:27.539Z,37.37
2018-12-31T20:57:56.073Z,39.07
2018-12-31T21:00:24.647Z,48.80
2018-12-31T21:02:53.198Z,45.83
2018-12-31T21:05:21.766Z,47.53
2018-12-31T21:07:50.312Z,46.10
2018-12-31T21:10:18.873Z,43.57
2018-12-31T21:12:47.719Z,36.97
2018-12-31T21:15:16.414Z,39.77
2018-12-31T21:17:45.341Z,34.97
2018-12-31T21:20:13.906Z,42.20
2018-12-31T21:22:42.462Z,49.83
2018-12-31T21:25:11.336Z,56.13
2018-12-31T21:27:39.877Z,47.00
2018-12-31T21:30:10.380Z,54.00
2018-12-31T21:32:38.922Z,51.10
2018-12-31T21:35:08.150Z,70.60
2018-12-31T21:37:36.702Z,308.17
2018-12-31T21:40:07.818Z,213.90
2018-12-31T21:42:36.363Z,137.37
2018-12-31T21:45:05.200Z,126.27
2018-12-31T21:47:33.745Z,56.80
2018-12-31T21:50:02.736Z,56.67
2018-12-31T21:52:31.275Z,52.93
2018-12-31T21:54:59.837Z,48.77
2018-12-31T21:57:28.383Z,44.97
2018-12-31T21:59:56.920Z,52.30
2018-12-31T22:02:25.491Z,50.47
2018-12-31T22:04:54.437Z,42.20
2018-12-31T22:07:23.008Z,42.90
2018-12-31T22:09:51.555Z,37.83
2018-12-31T22:12:20.122Z,37.73
2018-12-31T22:14:48.666Z,42.53
2018-12-31T22:17:17.231Z,40.27
2018-12-31T22:19:45.776Z,39.57
2018-12-31T22:22:14.342Z,38.20
2018-12-31T22:24:42.892Z,38.20
2018-12-31T22:27:11.476Z,37.33
2018-12-31T22:29:40.039Z,41.20
2018-12-31T22:32:10.391Z,39.47
2018-12-31T22:34:39.065Z,39.80
2018-12-31T22:37:07.638Z,41.87
2018-12-31T22:39:36.187Z,40.53
2018-12-31T22:42:04.762Z,37.13
2018-12-31T22:44:33.699Z,34.80
2018-12-31T22:47:02.266Z,43.00
2018-12-31T22:49:30.803Z,43.23
2018-12-31T22:51:59.372Z,39.47
2018-12-31T22:54:27.912Z,39.90
2018-12-31T22:56:56.777Z,47.03
2018-12-31T22:59:25.312Z,48.23
2018-12-31T23:01:53.882Z,46.33
2018-12-31T23:04:22.429Z,111.00
2018-12-31T23:06:53.111Z,370.57
2018-12-31T23:09:21.957Z,884.17
2018-12-31T23:11:50.539Z,827.87
2018-12-31T23:14:19.095Z,725.77
2018-12-31T23:16:47.679Z,723.70
2018-12-31T23:19:16.371Z,678.80
2018-12-31T23:21:44.952Z,702.07
2018-12-31T23:24:13.507Z,555.10
2018-12-31T23:26:42.078Z,495.27
2018-12-31T23:29:10.622Z,425.17
2018-12-31T23:31:39.207Z,407.80
2018-12-31T23:34:07.758Z,370.57
2018-12-31T23:36:36.928Z,493.07
2018-12-31T23:39:06.917Z,455.23
2018-12-31T23:41:35.471Z,490.57
2018-12-31T23:44:04.113Z,451.43
2018-12-31T23:46:32.674Z,373.73
2018-12-31T23:49:01.544Z,307.83
2018-12-31T23:51:30.097Z,347.00
2018-12-31T23:53:58.664Z,223.50
2018-12-31T23:56:27.215Z,240.47
2018-12-31T23:58:55.788Z,220.03
